Impacts TAF Board
For situational awareness. Not to be used for flight planning purposes.
IDs:

KMOB - Mobile Rgnl, AL, US

Issued at 0038 UTC 06 Dec 2020
Updated at 0225 UTC 06 Dec 2020
Potential Impact None Slight Moderate High
Time0156Z 06/03Z 06/04Z 06/05Z 06/06Z 06/07Z 06/08Z 06/09Z 06/10Z 06/11Z 06/12Z 06/13Z 06/14Z 06/15Z>>
Type OBS PRVL PRVL PRVL PRVL PRVL PRVL PRVL PRVL PRVL PRVL PRVL PRVL PRVL
VIS 10 >6 >6 >6 >6 >6 >6 >6 >6 >6 >6 >6 >6 >6
CIG -- 250 250 250 250 250 250 250 250 250 250 250 250 250
Cover FEW BKN BKN BKN BKN BKN BKN BKN BKN BKN BKN BKN BKN BKN
FltCat VFR VFR VFR VFR VFR VFR VFR VFR VFR VFR VFR VFR VFR VFR
WX -- -- -- -- -- -- -- -- -- -- -- -- -- --
WDir 270 VRB VRB VRB VRB VRB VRB VRB VRB VRB VRB VRB VRB VRB
WSpd 3 3 3 3 3 3 3 3 3 3 3 3 3 3
WGst -- -- -- -- -- -- -- -- -- -- -- -- -- --
Raw TAF
KMOB 060038Z 0601/0624 VRB03KT P6SM BKN250
  FM061700 34005KT P6SM BKN120


Raw METAR
KMOB 060156Z 27003KT 10SM FEW250 10/07 A3016 RMK AO2 SLP213 T01000067
KMOB 060056Z 27004KT 10SM FEW250 11/07 A3016 RMK AO2 SLP212 T01060067
KMOB 052356Z 26004KT 10SM FEW250 11/08 A3014 RMK AO2 SLP206 T01060078 10156 20106 53006

METAR Board
Radar Display
Forecast Discussion
For situational awareness. Not to be used for flight planning purposes.